createdAt,value
2023-04-24T00:06:00.344Z,23.42
2023-04-24T00:08:29.131Z,23.83
2023-04-24T00:10:58.409Z,26.02
2023-04-24T00:13:26.100Z,24.85
2023-04-24T00:15:53.675Z,23.25
2023-04-24T00:18:21.625Z,24.17
2023-04-24T00:20:52.333Z,23.95
2023-04-24T00:23:20.357Z,23.63
2023-04-24T00:25:51.229Z,23.80
2023-04-24T00:28:22.605Z,23.60
2023-04-24T00:30:51.088Z,23.35
2023-04-24T00:33:20.030Z,26.50
2023-04-24T00:35:49.799Z,23.13
2023-04-24T00:38:18.830Z,22.42
2023-04-24T00:40:48.673Z,25.50
2023-04-24T00:43:18.639Z,27.23
2023-04-24T00:45:48.453Z,22.00
2023-04-24T00:48:19.095Z,20.50
2023-04-24T00:50:49.413Z,19.83
2023-04-24T00:53:22.132Z,22.02
2023-04-24T00:55:51.284Z,28.10
2023-04-24T00:58:19.913Z,23.77
2023-04-24T01:00:50.028Z,22.08
2023-04-24T01:03:19.666Z,21.70
2023-04-24T01:05:51.211Z,25.35
2023-04-24T01:08:19.659Z,24.85
2023-04-24T01:10:49.826Z,25.45
2023-04-24T01:13:23.807Z,25.08
2023-04-24T01:15:51.881Z,29.30
2023-04-24T01:18:22.287Z,25.88
2023-04-24T01:20:55.062Z,25.70
2023-04-24T01:23:23.120Z,27.70
2023-04-24T01:25:52.879Z,30.00
2023-04-24T01:28:22.528Z,25.73
2023-04-24T01:30:50.785Z,27.02
2023-04-24T01:33:23.306Z,27.58
2023-04-24T01:35:51.763Z,34.13
2023-04-24T01:38:20.276Z,44.88
2023-04-24T01:40:49.741Z,38.10
2023-04-24T01:43:20.367Z,39.95
2023-04-24T01:45:49.959Z,38.95
2023-04-24T01:48:18.853Z,42.22
2023-04-24T01:50:50.838Z,43.20
2023-04-24T01:53:20.179Z,39.20
2023-04-24T01:55:55.827Z,42.15
2023-04-24T01:58:24.461Z,46.53
2023-04-24T02:00:52.207Z,42.88
2023-04-24T02:03:20.222Z,46.88
2023-04-24T02:05:50.718Z,42.35
2023-04-24T02:08:19.802Z,42.83
2023-04-24T02:10:50.269Z,42.38
2023-04-24T02:13:20.335Z,38.67
2023-04-24T02:15:50.118Z,38.63
2023-04-24T02:18:19.433Z,36.17
2023-04-24T02:20:50.402Z,37.90
2023-04-24T02:23:19.305Z,32.90
2023-04-24T02:25:48.088Z,36.78
2023-04-24T02:28:16.098Z,38.35
2023-04-24T02:30:49.577Z,41.28
2023-04-24T02:33:18.946Z,39.05
2023-04-24T02:35:48.734Z,40.65
2023-04-24T02:38:23.878Z,43.55
2023-04-24T02:40:53.389Z,45.65
2023-04-24T02:43:21.838Z,46.78
2023-04-24T02:45:50.985Z,45.17
2023-04-24T02:48:28.386Z,51.70
2023-04-24T02:50:56.766Z,53.00
2023-04-24T02:53:24.734Z,53.58
2023-04-24T02:55:52.417Z,53.53
2023-04-24T02:58:21.814Z,63.53
2023-04-24T03:00:57.681Z,70.70
2023-04-24T03:03:26.361Z,70.28
2023-04-24T03:05:54.712Z,70.40
2023-04-24T03:08:23.565Z,67.90
2023-04-24T03:10:57.957Z,68.38
2023-04-24T03:13:28.894Z,68.78
2023-04-24T03:15:56.910Z,68.10
2023-04-24T03:18:24.978Z,75.22
2023-04-24T03:20:54.927Z,69.03
2023-04-24T03:23:22.730Z,76.00
2023-04-24T03:25:53.800Z,70.13
2023-04-24T03:28:21.547Z,68.80
2023-04-24T03:30:59.538Z,72.10
2023-04-24T03:33:30.261Z,64.60
2023-04-24T03:36:06.273Z,66.22
2023-04-24T03:38:41.402Z,68.18
2023-04-24T03:41:23.951Z,64.32
2023-04-24T03:43:57.328Z,68.25
2023-04-24T03:46:26.392Z,66.07
2023-04-24T03:48:59.022Z,65.95
2023-04-24T03:51:31.987Z,62.70
2023-04-24T03:54:10.371Z,61.53
2023-04-24T03:56:40.915Z,56.47
2023-04-24T03:59:09.226Z,61.38
2023-04-24T04:01:38.474Z,59.45
2023-04-24T04:04:12.909Z,54.33
2023-04-24T04:06:41.238Z,55.35
2023-04-24T04:09:09.817Z,56.17
2023-04-24T04:11:37.699Z,63.67
2023-04-24T04:14:07.521Z,64.80
2023-04-24T04:16:37.810Z,62.33
2023-04-24T04:19:06.944Z,57.13
2023-04-24T04:21:35.895Z,54.92
2023-04-24T04:24:13.116Z,53.97
2023-04-24T04:26:52.638Z,55.53
2023-04-24T04:31:54.105Z,51.85
2023-04-24T04:34:23.790Z,57.92
2023-04-24T04:36:53.779Z,58.13
2023-04-24T04:39:38.601Z,54.10
2023-04-24T04:42:09.768Z,52.00
2023-04-24T04:44:42.273Z,45.55
2023-04-24T04:47:14.087Z,44.95
2023-04-24T04:49:42.988Z,49.47
2023-04-24T04:52:21.932Z,49.00
2023-04-24T04:54:54.911Z,49.63
2023-04-24T04:57:26.012Z,41.28
2023-04-24T04:59:54.628Z,44.42
2023-04-24T05:02:36.138Z,42.25
2023-04-24T05:05:04.284Z,45.22
2023-04-24T05:07:36.444Z,47.08
2023-04-24T05:10:04.948Z,44.40
2023-04-24T05:12:32.945Z,42.80
2023-04-24T05:15:02.141Z,41.95
2023-04-24T05:17:31.115Z,42.58
2023-04-24T05:20:00.043Z,42.33
2023-04-24T05:22:30.831Z,39.05
2023-04-24T05:24:58.763Z,41.53
2023-04-24T05:27:54.917Z,42.58
2023-04-24T05:30:24.538Z,43.05
2023-04-24T05:32:53.357Z,35.78
2023-04-24T05:35:21.885Z,39.90
2023-04-24T05:37:49.867Z,35.75
2023-04-24T05:40:20.016Z,34.08
2023-04-24T05:42:50.747Z,37.72
2023-04-24T05:45:20.426Z,35.35
2023-04-24T05:47:49.588Z,31.85
2023-04-24T05:50:19.570Z,37.42
2023-04-24T05:52:50.076Z,29.80
2023-04-24T05:55:27.001Z,31.17
2023-04-24T05:57:56.333Z,24.10
2023-04-24T06:00:26.367Z,23.38
2023-04-24T06:03:02.235Z,16.88
2023-04-24T06:05:32.701Z,14.20
2023-04-24T06:08:01.083Z,9.95
2023-04-24T06:10:37.415Z,9.65
2023-04-24T06:13:06.735Z,12.15
2023-04-24T06:15:38.055Z,9.65
2023-04-24T06:18:13.856Z,10.90
2023-04-24T06:20:45.213Z,10.45
2023-04-24T06:23:14.167Z,9.52
2023-04-24T06:25:42.119Z,9.55
2023-04-24T06:28:10.593Z,7.82
2023-04-24T06:30:44.450Z,8.43
2023-04-24T06:35:49.037Z,9.00
2023-04-24T06:38:20.083Z,10.65
2023-04-24T06:40:49.149Z,8.18
2023-04-24T06:43:17.308Z,8.32
2023-04-24T06:45:45.192Z,10.02
2023-04-24T06:48:13.274Z,7.43
2023-04-24T06:50:41.564Z,8.20
2023-04-24T06:53:10.793Z,5.13
2023-04-24T06:55:42.714Z,4.32
2023-04-24T06:58:11.061Z,4.55
2023-04-24T07:00:38.929Z,5.32
2023-04-24T07:03:07.146Z,4.15
2023-04-24T07:05:39.365Z,5.38
2023-04-24T07:08:07.998Z,1.48
2023-04-24T07:10:37.119Z,1.25
2023-04-24T07:13:05.779Z,2.10
2023-04-24T07:15:33.512Z,2.20
2023-04-24T07:18:04.852Z,3.45
2023-04-24T07:20:37.100Z,4.30
2023-04-24T07:23:05.978Z,2.17
2023-04-24T07:25:34.213Z,5.22
2023-04-24T07:28:03.709Z,4.63
2023-04-24T07:30:34.312Z,6.03
2023-04-24T07:33:02.579Z,5.10
2023-04-24T07:35:31.802Z,6.60
2023-04-24T07:37:59.538Z,4.00
2023-04-24T07:40:28.467Z,6.15
2023-04-24T07:42:57.778Z,7.10
2023-04-24T07:45:27.409Z,9.23
2023-04-24T07:47:57.891Z,13.40
2023-04-24T07:50:26.812Z,16.75
2023-04-24T07:52:56.257Z,21.42
2023-04-24T07:55:28.113Z,21.08
2023-04-24T07:57:58.939Z,24.17
2023-04-24T08:00:27.322Z,25.08
2023-04-24T08:02:58.793Z,23.00
2023-04-24T08:05:28.594Z,29.85
2023-04-24T08:07:57.564Z,30.25
2023-04-24T08:10:32.063Z,31.52
2023-04-24T08:13:05.172Z,25.80
2023-04-24T08:15:34.337Z,25.48
2023-04-24T08:18:02.338Z,27.55
2023-04-24T08:20:30.561Z,29.90
2023-04-24T08:22:58.411Z,30.15
2023-04-24T08:25:26.437Z,26.50
2023-04-24T08:27:54.367Z,23.05
2023-04-24T08:30:23.351Z,22.33
2023-04-24T08:32:52.761Z,26.42
2023-04-24T08:35:24.712Z,23.40
2023-04-24T08:37:58.614Z,24.02
2023-04-24T08:40:32.824Z,22.50
2023-04-24T08:43:04.089Z,29.17
2023-04-24T08:45:32.401Z,25.40
2023-04-24T08:48:01.188Z,36.63
2023-04-24T08:50:29.429Z,27.67
2023-04-24T08:52:58.237Z,36.95
2023-04-24T08:55:27.484Z,42.55
2023-04-24T08:57:56.062Z,28.80
2023-04-24T09:00:24.811Z,33.65
2023-04-24T09:02:56.368Z,32.40
2023-04-24T09:05:28.533Z,32.75
2023-04-24T09:08:06.575Z,41.13
2023-04-24T09:10:38.698Z,25.42
2023-04-24T09:13:12.514Z,33.63
2023-04-24T09:15:43.181Z,28.52
2023-04-24T09:18:11.321Z,37.50
2023-04-24T09:20:59.000Z,26.60
2023-04-24T09:23:29.754Z,36.22
2023-04-24T09:26:01.155Z,30.60
2023-04-24T09:28:39.625Z,31.80
2023-04-24T09:31:22.764Z,24.67
2023-04-24T09:34:01.253Z,28.85
2023-04-24T09:36:35.849Z,23.90
2023-04-24T09:39:04.225Z,27.40
2023-04-24T09:41:32.572Z,25.45
2023-04-24T09:44:13.226Z,30.08
2023-04-24T09:46:41.326Z,17.25
2023-04-24T09:49:18.192Z,21.40
2023-04-24T09:51:47.979Z,16.95
2023-04-24T09:54:18.802Z,18.25
2023-04-24T09:56:52.072Z,20.10
2023-04-24T09:59:21.058Z,12.23
2023-04-24T10:01:50.635Z,18.00
2023-04-24T10:04:25.858Z,24.83
2023-04-24T10:06:54.795Z,22.13
2023-04-24T10:09:25.442Z,18.05
2023-04-24T10:11:54.932Z,17.58
2023-04-24T10:14:25.154Z,16.08
2023-04-24T10:16:59.529Z,13.90
2023-04-24T10:19:28.073Z,21.02
2023-04-24T10:21:58.386Z,10.52
2023-04-24T10:24:26.508Z,14.65
2023-04-24T10:26:54.762Z,14.25
2023-04-24T10:29:23.459Z,17.98
2023-04-24T10:31:51.242Z,12.52
2023-04-24T10:34:23.286Z,13.98
2023-04-24T10:36:55.850Z,14.82
2023-04-24T10:39:27.936Z,13.43
2023-04-24T10:42:00.237Z,15.93
2023-04-24T10:44:38.002Z,10.13
2023-04-24T10:47:05.807Z,11.27
2023-04-24T10:49:34.047Z,12.85
2023-04-24T10:52:08.506Z,12.60
2023-04-24T10:54:42.269Z,7.80
2023-04-24T10:57:32.145Z,13.05
2023-04-24T11:00:16.013Z,14.45
2023-04-24T11:02:54.300Z,8.65
2023-04-24T11:05:24.565Z,15.73
2023-04-24T11:08:12.188Z,6.80
2023-04-24T11:10:40.634Z,11.23
2023-04-24T11:13:10.911Z,8.82
2023-04-24T11:15:39.693Z,8.73
2023-04-24T11:18:07.531Z,11.07
2023-04-24T11:20:36.721Z,7.13
2023-04-24T11:23:08.001Z,4.13
2023-04-24T11:25:35.754Z,8.65
2023-04-24T11:28:07.517Z,12.80
2023-04-24T11:30:36.461Z,3.08
2023-04-24T11:33:06.328Z,11.77
2023-04-24T11:35:41.692Z,12.60
2023-04-24T11:38:23.272Z,15.68
2023-04-24T11:40:54.911Z,11.68
2023-04-24T11:43:23.530Z,13.93
2023-04-24T11:45:52.312Z,9.32
2023-04-24T11:48:32.286Z,8.52
2023-04-24T11:51:00.700Z,7.28
2023-04-24T11:53:28.752Z,8.27
2023-04-24T11:56:04.817Z,10.77
2023-04-24T11:58:41.988Z,8.60
2023-04-24T12:01:10.254Z,7.97
2023-04-24T12:03:38.287Z,10.98
2023-04-24T12:06:10.191Z,7.88
2023-04-24T12:08:38.847Z,14.32
2023-04-24T12:11:09.919Z,6.05
2023-04-24T12:13:37.916Z,4.78
2023-04-24T12:16:07.054Z,8.32
2023-04-24T12:18:35.135Z,6.28
2023-04-24T12:21:22.084Z,10.93
2023-04-24T12:23:53.302Z,4.30
2023-04-24T12:28:51.628Z,13.10
2023-04-24T12:31:23.041Z,6.82
2023-04-24T12:33:50.632Z,8.93
2023-04-24T12:36:19.716Z,6.30
2023-04-24T12:38:48.607Z,8.48
2023-04-24T12:41:20.509Z,8.02
2023-04-24T12:43:55.518Z,10.02
2023-04-24T12:46:23.599Z,7.80
2023-04-24T12:48:51.425Z,4.90
2023-04-24T12:51:20.319Z,10.85
2023-04-24T12:53:48.590Z,9.52
2023-04-24T12:56:18.979Z,9.00
2023-04-24T13:01:15.353Z,7.95
2023-04-24T13:03:45.402Z,5.00
2023-04-24T13:06:13.528Z,9.02
2023-04-24T13:08:41.272Z,4.13
2023-04-24T13:11:09.112Z,10.95
2023-04-24T13:13:36.933Z,8.20
2023-04-24T13:16:05.089Z,6.68
2023-04-24T13:18:33.053Z,5.32
2023-04-24T13:21:01.021Z,6.50
2023-04-24T13:23:29.326Z,6.65
2023-04-24T13:25:59.443Z,9.32
2023-04-24T13:30:56.194Z,8.80
2023-04-24T13:33:27.701Z,6.57
2023-04-24T13:35:55.744Z,7.65
2023-04-24T13:38:24.036Z,10.70
2023-04-24T13:40:52.332Z,9.15
2023-04-24T13:43:21.863Z,11.50
2023-04-24T13:45:50.510Z,8.07
2023-04-24T13:48:19.138Z,8.85
2023-04-24T13:50:51.458Z,6.93
2023-04-24T13:53:19.796Z,6.85
2023-04-24T13:55:51.862Z,11.27
2023-04-24T13:58:22.291Z,15.13
2023-04-24T14:03:19.295Z,6.50
2023-04-24T14:05:47.953Z,11.45
2023-04-24T14:08:15.944Z,7.78
2023-04-24T14:10:50.802Z,13.93
2023-04-24T14:13:22.280Z,9.98
2023-04-24T14:15:50.917Z,6.18
2023-04-24T14:18:23.109Z,9.38
2023-04-24T14:20:51.290Z,9.65
2023-04-24T14:23:21.012Z,9.18
2023-04-24T14:25:53.806Z,11.23
2023-04-24T14:28:23.119Z,14.77
2023-04-24T14:30:51.190Z,8.40
2023-04-24T14:33:20.456Z,14.93
2023-04-24T14:35:48.958Z,9.00
2023-04-24T14:38:19.666Z,13.68
2023-04-24T14:43:19.804Z,13.27
2023-04-24T14:45:51.077Z,12.18
2023-04-24T14:48:19.998Z,19.58
2023-04-24T14:50:53.700Z,14.13
2023-04-24T14:53:21.878Z,14.77
2023-04-24T14:55:50.872Z,17.52
2023-04-24T14:58:20.645Z,15.18
2023-04-24T15:00:53.575Z,10.85
2023-04-24T15:03:24.948Z,17.17
2023-04-24T15:05:53.223Z,21.02
2023-04-24T15:08:22.345Z,12.45
2023-04-24T15:10:55.879Z,7.90
2023-04-24T15:13:24.558Z,8.48
2023-04-24T15:15:52.405Z,8.27
2023-04-24T15:18:20.604Z,12.02
2023-04-24T15:20:51.566Z,10.30
2023-04-24T15:23:39.071Z,13.18
2023-04-24T15:26:12.387Z,6.55
2023-04-24T15:28:40.446Z,7.43
2023-04-24T15:31:11.635Z,10.15
2023-04-24T15:33:39.479Z,11.32
2023-04-24T15:36:08.556Z,11.88
2023-04-24T15:38:36.733Z,14.32
2023-04-24T15:41:08.305Z,15.57
2023-04-24T15:43:36.922Z,17.40
2023-04-24T15:46:09.437Z,20.05
2023-04-24T15:48:37.454Z,15.48
2023-04-24T15:51:05.657Z,15.38
2023-04-24T15:53:33.954Z,15.55
2023-04-24T15:56:02.315Z,17.23
2023-04-24T15:58:31.025Z,23.30
2023-04-24T16:01:01.135Z,13.88
2023-04-24T16:03:30.724Z,13.70
2023-04-24T16:05:58.921Z,16.10
2023-04-24T16:08:26.994Z,13.52
2023-04-24T16:10:55.041Z,17.08
2023-04-24T16:13:22.887Z,14.95
2023-04-24T16:15:51.097Z,16.92
2023-04-24T16:18:19.320Z,11.57
2023-04-24T16:20:50.487Z,16.15
2023-04-24T16:23:19.811Z,13.30
2023-04-24T16:25:48.924Z,16.70
2023-04-24T16:28:17.860Z,13.38
2023-04-24T16:30:45.626Z,14.82
2023-04-24T16:33:19.019Z,15.52
2023-04-24T16:35:53.778Z,16.70
2023-04-24T16:38:21.715Z,18.20
2023-04-24T16:40:52.991Z,21.30
2023-04-24T16:43:20.865Z,17.40
2023-04-24T16:45:50.806Z,14.35
2023-04-24T16:48:19.938Z,24.42
2023-04-24T16:50:48.771Z,16.20
2023-04-24T16:53:17.828Z,16.20
2023-04-24T16:55:51.217Z,16.42
2023-04-24T16:58:20.445Z,14.07
2023-04-24T17:00:48.935Z,18.45
2023-04-24T17:03:18.661Z,18.17
2023-04-24T17:05:47.957Z,15.25
2023-04-24T17:08:15.809Z,16.70
2023-04-24T17:10:47.843Z,18.40
2023-04-24T17:13:18.000Z,20.05
2023-04-24T17:15:45.874Z,13.80
2023-04-24T17:18:18.686Z,19.65
2023-04-24T17:20:47.560Z,19.77
2023-04-24T17:23:15.625Z,20.75
2023-04-24T17:25:43.472Z,17.75
2023-04-24T17:28:19.010Z,21.65
2023-04-24T17:30:51.578Z,12.55
2023-04-24T17:35:50.654Z,15.20
2023-04-24T17:38:22.211Z,14.00
2023-04-24T17:40:53.643Z,17.38
2023-04-24T17:43:22.194Z,16.98
2023-04-24T17:45:50.938Z,13.93
2023-04-24T17:48:21.613Z,17.42
2023-04-24T17:50:49.834Z,17.40
2023-04-24T17:53:20.697Z,19.83
2023-04-24T17:55:49.716Z,18.88
2023-04-24T17:58:19.338Z,16.15
2023-04-24T18:00:48.222Z,21.33
2023-04-24T18:03:18.038Z,16.25
2023-04-24T18:05:52.149Z,20.48
2023-04-24T18:08:22.234Z,17.58
2023-04-24T18:10:50.915Z,22.42
2023-04-24T18:13:21.114Z,16.08
2023-04-24T18:15:50.176Z,24.23
2023-04-24T18:18:18.383Z,19.63
2023-04-24T18:20:50.731Z,20.73
2023-04-24T18:23:19.857Z,29.70
2023-04-24T18:25:52.338Z,20.70
2023-04-24T18:28:21.723Z,21.55
2023-04-24T18:30:50.670Z,18.38
2023-04-24T18:33:21.605Z,17.77
2023-04-24T18:35:50.801Z,25.23
2023-04-24T18:38:19.256Z,14.55
2023-04-24T18:40:50.011Z,25.08
2023-04-24T18:43:20.446Z,23.33
2023-04-24T18:48:19.857Z,16.13
2023-04-24T18:50:49.728Z,19.35
2023-04-24T18:53:18.689Z,21.88
2023-04-24T18:55:48.483Z,25.85
2023-04-24T18:58:17.480Z,18.60
2023-04-24T19:00:45.932Z,14.23
2023-04-24T19:03:15.306Z,19.05
2023-04-24T19:05:43.159Z,25.63
2023-04-24T19:08:11.749Z,16.67
2023-04-24T19:10:39.464Z,16.50
2023-04-24T19:13:07.747Z,21.15
2023-04-24T19:16:09.133Z,22.52
2023-04-24T19:18:36.899Z,19.80
2023-04-24T19:21:04.698Z,16.80
2023-04-24T19:23:39.807Z,15.55
2023-04-24T19:26:08.288Z,23.83
2023-04-24T19:28:38.604Z,24.73
2023-04-24T19:31:07.136Z,21.58
2023-04-24T19:33:35.620Z,24.08
2023-04-24T19:36:03.482Z,18.48
2023-04-24T19:38:31.363Z,32.15
2023-04-24T19:40:59.362Z,25.50
2023-04-24T19:43:27.119Z,33.58
2023-04-24T19:45:57.997Z,27.23
2023-04-24T19:48:25.834Z,19.40
2023-04-24T19:50:54.773Z,23.73
2023-04-24T19:53:25.244Z,22.25
2023-04-24T19:55:53.174Z,32.35
2023-04-24T19:58:20.957Z,24.33
2023-04-24T20:00:49.679Z,29.98
2023-04-24T20:03:32.098Z,22.42
2023-04-24T20:06:01.031Z,28.45
2023-04-24T20:08:29.211Z,23.40
2023-04-24T20:10:58.331Z,25.98
2023-04-24T20:13:32.087Z,32.22
2023-04-24T20:16:00.467Z,21.45
2023-04-24T20:18:28.446Z,24.75
2023-04-24T20:21:00.246Z,28.20
2023-04-24T20:23:28.240Z,24.38
2023-04-24T20:25:58.616Z,30.73
2023-04-24T20:28:27.595Z,31.27
2023-04-24T20:30:55.414Z,32.10
2023-04-24T20:33:23.835Z,24.70
2023-04-24T20:35:52.821Z,27.38
2023-04-24T20:38:22.542Z,23.65
2023-04-24T20:40:57.783Z,24.05
2023-04-24T20:43:29.084Z,20.40
2023-04-24T20:46:00.511Z,21.05
2023-04-24T20:48:30.546Z,24.85
2023-04-24T20:50:58.434Z,28.00
2023-04-24T20:53:26.076Z,24.98
2023-04-24T20:55:54.024Z,17.90
2023-04-24T20:58:23.525Z,25.55
2023-04-24T21:00:52.045Z,24.30
2023-04-24T21:03:20.403Z,21.42
2023-04-24T21:05:50.320Z,17.15
2023-04-24T21:08:18.419Z,26.83
2023-04-24T21:10:47.282Z,18.98
2023-04-24T21:13:15.152Z,12.88
2023-04-24T21:15:42.741Z,18.17
2023-04-24T21:18:10.605Z,11.85
2023-04-24T21:20:38.897Z,13.25
2023-04-24T21:23:06.647Z,20.45
2023-04-24T21:25:35.189Z,10.63
2023-04-24T21:28:03.560Z,12.40
2023-04-24T21:30:31.711Z,12.15
2023-04-24T21:33:00.466Z,15.65
2023-04-24T21:35:28.677Z,13.15
2023-04-24T21:37:58.398Z,16.08
2023-04-24T21:40:26.137Z,9.50
2023-04-24T21:43:01.251Z,10.68
2023-04-24T21:45:29.250Z,11.95
2023-04-24T21:47:58.874Z,13.40
2023-04-24T21:50:26.675Z,8.50
2023-04-24T21:52:54.795Z,10.60
2023-04-24T21:55:22.783Z,10.30
2023-04-24T21:57:50.635Z,10.85
2023-04-24T22:00:22.806Z,7.88
2023-04-24T22:02:51.637Z,17.45
2023-04-24T22:05:21.568Z,12.45
2023-04-24T22:07:51.199Z,12.07
2023-04-24T22:10:20.096Z,12.75
2023-04-24T22:12:51.351Z,9.98
2023-04-24T22:15:22.341Z,9.15
2023-04-24T22:17:50.583Z,7.22
2023-04-24T22:20:21.702Z,11.90
2023-04-24T22:22:50.048Z,7.85
2023-04-24T22:25:19.182Z,11.75
2023-04-24T22:27:47.581Z,10.70
2023-04-24T22:30:16.042Z,8.43
2023-04-24T22:32:47.673Z,12.18
2023-04-24T22:35:20.362Z,9.07
2023-04-24T22:37:50.682Z,11.50
2023-04-24T22:40:19.578Z,9.10
2023-04-24T22:42:47.828Z,10.98
2023-04-24T22:45:17.273Z,8.57
2023-04-24T22:47:46.017Z,9.63
2023-04-24T22:50:17.763Z,4.82
2023-04-24T22:52:46.444Z,11.27
2023-04-24T22:55:17.744Z,9.73
2023-04-24T22:57:45.695Z,14.75
2023-04-24T23:00:17.735Z,10.52
2023-04-24T23:02:45.717Z,13.68
2023-04-24T23:05:13.476Z,12.43
2023-04-24T23:07:42.058Z,12.77
2023-04-24T23:10:10.055Z,12.45
2023-04-24T23:12:37.753Z,8.10
2023-04-24T23:15:06.110Z,10.90
2023-04-24T23:17:34.360Z,12.75
2023-04-24T23:20:02.163Z,9.85
2023-04-24T23:22:30.064Z,7.55
2023-04-24T23:24:59.381Z,11.90
2023-04-24T23:27:27.789Z,10.38
2023-04-24T23:29:55.866Z,9.68
2023-04-24T23:32:23.736Z,10.70
2023-04-24T23:34:51.573Z,10.10
2023-04-24T23:37:19.973Z,12.10
2023-04-24T23:39:48.964Z,14.45
2023-04-24T23:42:17.168Z,15.30
2023-04-24T23:44:45.025Z,11.48
2023-04-24T23:47:12.827Z,13.38
2023-04-24T23:49:41.742Z,12.30
2023-04-24T23:52:09.650Z,11.80
2023-04-24T23:54:38.699Z,12.57
2023-04-24T23:57:06.642Z,17.10
2023-04-24T23:59:34.667Z,20.52
